sensor_id;sensor_type;location;lat;lon;timestamp;P1;durP1;ratioP1;P2;durP2;ratioP2
2177;SDS011;1095;50.992;6.798;2022-12-10T00:00:00;72.90;;;35.92;;
2177;SDS011;1095;50.992;6.798;2022-12-10T00:02:26;75.85;;;37.03;;
2177;SDS011;1095;50.992;6.798;2022-12-10T00:04:55;67.40;;;35.47;;
2177;SDS011;1095;50.992;6.798;2022-12-10T00:07:22;71.97;;;37.13;;
2177;SDS011;1095;50.992;6.798;2022-12-10T00:09:48;69.10;;;35.03;;
2177;SDS011;1095;50.992;6.798;2022-12-10T00:12:16;80.60;;;37.67;;
2177;SDS011;1095;50.992;6.798;2022-12-10T00:14:43;76.85;;;35.97;;
2177;SDS011;1095;50.992;6.798;2022-12-10T00:17:09;66.72;;;35.20;;
2177;SDS011;1095;50.992;6.798;2022-12-10T00:19:36;69.65;;;35.25;;
2177;SDS011;1095;50.992;6.798;2022-12-10T00:22:03;79.65;;;36.80;;
2177;SDS011;1095;50.992;6.798;2022-12-10T00:24:29;76.18;;;36.33;;
2177;SDS011;1095;50.992;6.798;2022-12-10T00:26:56;70.43;;;35.22;;
2177;SDS011;1095;50.992;6.798;2022-12-10T00:29:24;66.88;;;34.53;;
2177;SDS011;1095;50.992;6.798;2022-12-10T00:31:50;77.57;;;36.75;;
2177;SDS011;1095;50.992;6.798;2022-12-10T00:34:17;70.75;;;35.72;;
2177;SDS011;1095;50.992;6.798;2022-12-10T00:36:47;66.18;;;35.13;;
2177;SDS011;1095;50.992;6.798;2022-12-10T00:39:15;74.35;;;35.30;;
2177;SDS011;1095;50.992;6.798;2022-12-10T00:41:42;71.60;;;35.42;;
2177;SDS011;1095;50.992;6.798;2022-12-10T00:44:10;66.72;;;34.40;;
2177;SDS011;1095;50.992;6.798;2022-12-10T00:46:38;69.60;;;35.70;;
2177;SDS011;1095;50.992;6.798;2022-12-10T00:49:05;71.22;;;35.78;;
2177;SDS011;1095;50.992;6.798;2022-12-10T00:51:31;65.70;;;33.88;;
2177;SDS011;1095;50.992;6.798;2022-12-10T00:53:58;71.68;;;35.13;;
2177;SDS011;1095;50.992;6.798;2022-12-10T00:56:26;74.18;;;35.20;;
2177;SDS011;1095;50.992;6.798;2022-12-10T00:58:53;69.30;;;34.35;;
2177;SDS011;1095;50.992;6.798;2022-12-10T01:01:21;70.65;;;36.10;;
2177;SDS011;1095;50.992;6.798;2022-12-10T01:03:52;71.05;;;34.67;;
2177;SDS011;1095;50.992;6.798;2022-12-10T01:06:21;71.85;;;33.70;;
2177;SDS011;1095;50.992;6.798;2022-12-10T01:08:49;68.68;;;34.38;;
2177;SDS011;1095;50.992;6.798;2022-12-10T01:11:17;78.15;;;36.65;;
2177;SDS011;1095;50.992;6.798;2022-12-10T01:13:45;69.85;;;34.83;;
2177;SDS011;1095;50.992;6.798;2022-12-10T01:18:43;71.57;;;34.70;;
2177;SDS011;1095;50.992;6.798;2022-12-10T01:21:14;81.82;;;38.75;;
2177;SDS011;1095;50.992;6.798;2022-12-10T01:23:42;78.47;;;38.42;;
2177;SDS011;1095;50.992;6.798;2022-12-10T01:26:12;83.32;;;39.78;;
2177;SDS011;1095;50.992;6.798;2022-12-10T01:28:41;81.07;;;37.30;;
2177;SDS011;1095;50.992;6.798;2022-12-10T01:31:09;74.18;;;35.90;;
2177;SDS011;1095;50.992;6.798;2022-12-10T01:33:37;73.13;;;37.10;;
2177;SDS011;1095;50.992;6.798;2022-12-10T01:36:05;73.97;;;35.55;;
2177;SDS011;1095;50.992;6.798;2022-12-10T01:38:34;78.28;;;36.05;;
2177;SDS011;1095;50.992;6.798;2022-12-10T01:41:01;81.78;;;37.97;;
2177;SDS011;1095;50.992;6.798;2022-12-10T01:43:29;78.63;;;36.47;;
2177;SDS011;1095;50.992;6.798;2022-12-10T01:46:15;75.57;;;36.88;;
2177;SDS011;1095;50.992;6.798;2022-12-10T01:48:42;78.18;;;38.28;;
2177;SDS011;1095;50.992;6.798;2022-12-10T01:51:08;82.35;;;36.97;;
2177;SDS011;1095;50.992;6.798;2022-12-10T01:53:37;74.00;;;36.75;;
2177;SDS011;1095;50.992;6.798;2022-12-10T01:56:08;83.75;;;37.67;;
2177;SDS011;1095;50.992;6.798;2022-12-10T01:58:35;75.63;;;35.97;;
2177;SDS011;1095;50.992;6.798;2022-12-10T02:01:05;75.97;;;37.45;;
2177;SDS011;1095;50.992;6.798;2022-12-10T02:03:37;87.57;;;38.10;;
2177;SDS011;1095;50.992;6.798;2022-12-10T02:06:24;74.78;;;36.22;;
2177;SDS011;1095;50.992;6.798;2022-12-10T02:09:01;80.68;;;37.35;;
2177;SDS011;1095;50.992;6.798;2022-12-10T02:11:37;81.60;;;38.22;;
2177;SDS011;1095;50.992;6.798;2022-12-10T02:14:09;80.05;;;38.67;;
2177;SDS011;1095;50.992;6.798;2022-12-10T02:16:41;84.22;;;37.25;;
2177;SDS011;1095;50.992;6.798;2022-12-10T02:19:15;79.30;;;37.63;;
2177;SDS011;1095;50.992;6.798;2022-12-10T02:21:48;81.32;;;35.75;;
2177;SDS011;1095;50.992;6.798;2022-12-10T02:24:18;80.53;;;37.58;;
2177;SDS011;1095;50.992;6.798;2022-12-10T02:26:50;80.43;;;38.50;;
2177;SDS011;1095;50.992;6.798;2022-12-10T02:29:22;79.43;;;37.30;;
2177;SDS011;1095;50.992;6.798;2022-12-10T02:31:52;83.55;;;38.75;;
2177;SDS011;1095;50.992;6.798;2022-12-10T02:34:22;88.75;;;39.15;;
2177;SDS011;1095;50.992;6.798;2022-12-10T02:36:51;80.20;;;38.08;;
2177;SDS011;1095;50.992;6.798;2022-12-10T02:39:23;70.20;;;31.05;;
2177;SDS011;1095;50.992;6.798;2022-12-10T02:42:01;81.35;;;38.67;;
2177;SDS011;1095;50.992;6.798;2022-12-10T02:44:31;80.20;;;37.70;;
2177;SDS011;1095;50.992;6.798;2022-12-10T02:47:01;85.30;;;37.38;;
2177;SDS011;1095;50.992;6.798;2022-12-10T02:49:29;80.45;;;37.08;;
2177;SDS011;1095;50.992;6.798;2022-12-10T02:51:59;82.03;;;37.80;;
2177;SDS011;1095;50.992;6.798;2022-12-10T02:54:39;76.63;;;35.75;;
2177;SDS011;1095;50.992;6.798;2022-12-10T02:57:15;79.05;;;35.65;;
2177;SDS011;1095;50.992;6.798;2022-12-10T03:02:33;72.03;;;35.03;;
2177;SDS011;1095;50.992;6.798;2022-12-10T03:05:12;79.35;;;37.72;;
2177;SDS011;1095;50.992;6.798;2022-12-10T03:07:45;75.45;;;37.13;;
2177;SDS011;1095;50.992;6.798;2022-12-10T03:10:17;81.68;;;36.75;;
2177;SDS011;1095;50.992;6.798;2022-12-10T03:12:53;74.88;;;35.60;;
2177;SDS011;1095;50.992;6.798;2022-12-10T03:15:27;54.38;;;27.42;;
2177;SDS011;1095;50.992;6.798;2022-12-10T03:17:55;67.95;;;35.00;;
2177;SDS011;1095;50.992;6.798;2022-12-10T03:20:25;75.35;;;34.85;;
2177;SDS011;1095;50.992;6.798;2022-12-10T03:22:53;74.82;;;34.88;;
2177;SDS011;1095;50.992;6.798;2022-12-10T03:25:21;77.20;;;35.13;;
2177;SDS011;1095;50.992;6.798;2022-12-10T03:27:51;69.63;;;34.92;;
2177;SDS011;1095;50.992;6.798;2022-12-10T03:30:20;66.18;;;33.70;;
2177;SDS011;1095;50.992;6.798;2022-12-10T03:32:48;72.65;;;34.55;;
2177;SDS011;1095;50.992;6.798;2022-12-10T03:35:19;64.22;;;32.67;;
2177;SDS011;1095;50.992;6.798;2022-12-10T03:37:48;70.70;;;33.65;;
2177;SDS011;1095;50.992;6.798;2022-12-10T03:40:22;65.13;;;32.00;;
2177;SDS011;1095;50.992;6.798;2022-12-10T03:42:50;67.97;;;31.42;;
2177;SDS011;1095;50.992;6.798;2022-12-10T03:45:17;69.82;;;32.08;;
2177;SDS011;1095;50.992;6.798;2022-12-10T03:47:43;72.25;;;31.75;;
2177;SDS011;1095;50.992;6.798;2022-12-10T03:50:12;70.57;;;31.80;;
2177;SDS011;1095;50.992;6.798;2022-12-10T03:52:39;71.88;;;34.08;;
2177;SDS011;1095;50.992;6.798;2022-12-10T03:55:07;67.88;;;33.28;;
2177;SDS011;1095;50.992;6.798;2022-12-10T03:57:34;70.25;;;33.05;;
2177;SDS011;1095;50.992;6.798;2022-12-10T04:00:01;63.58;;;33.28;;
2177;SDS011;1095;50.992;6.798;2022-12-10T04:02:29;73.53;;;32.10;;
2177;SDS011;1095;50.992;6.798;2022-12-10T04:04:55;68.50;;;31.65;;
2177;SDS011;1095;50.992;6.798;2022-12-10T04:07:23;69.72;;;32.60;;
2177;SDS011;1095;50.992;6.798;2022-12-10T04:09:50;71.03;;;31.95;;
2177;SDS011;1095;50.992;6.798;2022-12-10T04:12:18;72.57;;;34.03;;
2177;SDS011;1095;50.992;6.798;2022-12-10T04:14:45;67.15;;;30.85;;
2177;SDS011;1095;50.992;6.798;2022-12-10T04:17:30;66.45;;;31.23;;
2177;SDS011;1095;50.992;6.798;2022-12-10T04:19:59;67.82;;;32.17;;
2177;SDS011;1095;50.992;6.798;2022-12-10T04:22:53;63.80;;;29.02;;
2177;SDS011;1095;50.992;6.798;2022-12-10T04:25:37;69.05;;;29.50;;
2177;SDS011;1095;50.992;6.798;2022-12-10T04:28:22;64.15;;;30.77;;
2177;SDS011;1095;50.992;6.798;2022-12-10T04:30:49;62.35;;;27.67;;
2177;SDS011;1095;50.992;6.798;2022-12-10T04:33:15;63.33;;;29.17;;
2177;SDS011;1095;50.992;6.798;2022-12-10T04:35:42;62.63;;;27.83;;
2177;SDS011;1095;50.992;6.798;2022-12-10T04:38:10;60.00;;;28.92;;
2177;SDS011;1095;50.992;6.798;2022-12-10T04:40:37;62.70;;;27.70;;
2177;SDS011;1095;50.992;6.798;2022-12-10T04:43:04;64.65;;;28.65;;
2177;SDS011;1095;50.992;6.798;2022-12-10T04:45:33;66.28;;;29.92;;
2177;SDS011;1095;50.992;6.798;2022-12-10T04:48:00;66.40;;;27.60;;
2177;SDS011;1095;50.992;6.798;2022-12-10T04:50:26;63.90;;;28.17;;
2177;SDS011;1095;50.992;6.798;2022-12-10T04:52:53;63.30;;;28.25;;
2177;SDS011;1095;50.992;6.798;2022-12-10T04:55:22;56.63;;;27.42;;
2177;SDS011;1095;50.992;6.798;2022-12-10T04:57:48;59.75;;;27.23;;
2177;SDS011;1095;50.992;6.798;2022-12-10T05:00:15;61.38;;;27.73;;
2177;SDS011;1095;50.992;6.798;2022-12-10T05:02:42;56.92;;;27.45;;
2177;SDS011;1095;50.992;6.798;2022-12-10T05:05:09;57.25;;;28.73;;
2177;SDS011;1095;50.992;6.798;2022-12-10T05:07:36;63.10;;;28.85;;
2177;SDS011;1095;50.992;6.798;2022-12-10T05:10:05;59.72;;;27.85;;
2177;SDS011;1095;50.992;6.798;2022-12-10T05:12:37;59.47;;;27.88;;
2177;SDS011;1095;50.992;6.798;2022-12-10T05:15:04;55.90;;;27.25;;
2177;SDS011;1095;50.992;6.798;2022-12-10T05:17:32;56.90;;;27.17;;
2177;SDS011;1095;50.992;6.798;2022-12-10T05:20:02;60.08;;;28.55;;
2177;SDS011;1095;50.992;6.798;2022-12-10T05:22:29;49.47;;;25.80;;
2177;SDS011;1095;50.992;6.798;2022-12-10T05:25:13;53.13;;;26.52;;
2177;SDS011;1095;50.992;6.798;2022-12-10T05:27:41;58.17;;;27.05;;
2177;SDS011;1095;50.992;6.798;2022-12-10T05:30:10;59.35;;;27.85;;
2177;SDS011;1095;50.992;6.798;2022-12-10T05:32:40;60.80;;;27.00;;
2177;SDS011;1095;50.992;6.798;2022-12-10T05:35:07;60.20;;;28.00;;
2177;SDS011;1095;50.992;6.798;2022-12-10T05:40:20;53.80;;;26.45;;
2177;SDS011;1095;50.992;6.798;2022-12-10T05:42:48;60.78;;;27.88;;
2177;SDS011;1095;50.992;6.798;2022-12-10T05:45:23;54.65;;;26.98;;
2177;SDS011;1095;50.992;6.798;2022-12-10T05:47:55;57.25;;;28.73;;
2177;SDS011;1095;50.992;6.798;2022-12-10T05:50:43;63.35;;;30.15;;
2177;SDS011;1095;50.992;6.798;2022-12-10T06:14:05;60.70;;;28.17;;
2177;SDS011;1095;50.992;6.798;2022-12-10T06:16:40;59.42;;;28.63;;
2177;SDS011;1095;50.992;6.798;2022-12-10T06:19:07;59.10;;;27.90;;
2177;SDS011;1095;50.992;6.798;2022-12-10T06:21:34;63.17;;;28.23;;
2177;SDS011;1095;50.992;6.798;2022-12-10T06:24:01;60.65;;;30.23;;
2177;SDS011;1095;50.992;6.798;2022-12-10T06:26:28;64.10;;;29.98;;
2177;SDS011;1095;50.992;6.798;2022-12-10T06:28:59;63.53;;;28.25;;
2177;SDS011;1095;50.992;6.798;2022-12-10T06:31:29;62.03;;;30.20;;
2177;SDS011;1095;50.992;6.798;2022-12-10T06:33:56;60.55;;;29.63;;
2177;SDS011;1095;50.992;6.798;2022-12-10T06:36:22;66.03;;;30.85;;
2177;SDS011;1095;50.992;6.798;2022-12-10T06:38:49;64.68;;;29.75;;
2177;SDS011;1095;50.992;6.798;2022-12-10T06:41:18;67.22;;;30.17;;
2177;SDS011;1095;50.992;6.798;2022-12-10T06:43:46;65.72;;;30.83;;
2177;SDS011;1095;50.992;6.798;2022-12-10T06:46:18;65.85;;;31.58;;
2177;SDS011;1095;50.992;6.798;2022-12-10T06:48:46;73.00;;;32.55;;
2177;SDS011;1095;50.992;6.798;2022-12-10T06:51:13;75.88;;;33.50;;
2177;SDS011;1095;50.992;6.798;2022-12-10T06:53:47;79.18;;;34.50;;
2177;SDS011;1095;50.992;6.798;2022-12-10T06:56:14;78.93;;;34.53;;
2177;SDS011;1095;50.992;6.798;2022-12-10T06:58:43;79.88;;;34.92;;
2177;SDS011;1095;50.992;6.798;2022-12-10T07:01:10;84.25;;;33.95;;
2177;SDS011;1095;50.992;6.798;2022-12-10T07:03:40;89.72;;;34.80;;
2177;SDS011;1095;50.992;6.798;2022-12-10T07:06:07;84.20;;;35.22;;
2177;SDS011;1095;50.992;6.798;2022-12-10T07:08:35;94.72;;;38.75;;
2177;SDS011;1095;50.992;6.798;2022-12-10T07:11:03;94.55;;;37.85;;
2177;SDS011;1095;50.992;6.798;2022-12-10T07:13:32;96.22;;;38.40;;
2177;SDS011;1095;50.992;6.798;2022-12-10T07:16:00;107.57;;;39.90;;
2177;SDS011;1095;50.992;6.798;2022-12-10T07:18:28;111.18;;;41.45;;
2177;SDS011;1095;50.992;6.798;2022-12-10T07:20:57;105.85;;;38.50;;
2177;SDS011;1095;50.992;6.798;2022-12-10T07:23:24;111.88;;;41.38;;
2177;SDS011;1095;50.992;6.798;2022-12-10T07:25:50;103.45;;;38.33;;
2177;SDS011;1095;50.992;6.798;2022-12-10T07:28:20;112.15;;;42.53;;
2177;SDS011;1095;50.992;6.798;2022-12-10T07:30:47;117.53;;;42.22;;
2177;SDS011;1095;50.992;6.798;2022-12-10T07:33:13;113.60;;;42.55;;
2177;SDS011;1095;50.992;6.798;2022-12-10T07:35:40;117.63;;;42.72;;
2177;SDS011;1095;50.992;6.798;2022-12-10T07:38:11;121.43;;;43.17;;
2177;SDS011;1095;50.992;6.798;2022-12-10T07:40:38;126.97;;;46.30;;
2177;SDS011;1095;50.992;6.798;2022-12-10T07:43:04;125.00;;;44.92;;
2177;SDS011;1095;50.992;6.798;2022-12-10T07:45:33;122.85;;;44.05;;
2177;SDS011;1095;50.992;6.798;2022-12-10T07:47:59;131.57;;;44.97;;
2177;SDS011;1095;50.992;6.798;2022-12-10T07:50:26;134.32;;;47.65;;
2177;SDS011;1095;50.992;6.798;2022-12-10T07:52:53;129.63;;;44.72;;
2177;SDS011;1095;50.992;6.798;2022-12-10T07:55:21;134.57;;;46.20;;
2177;SDS011;1095;50.992;6.798;2022-12-10T07:57:47;134.38;;;45.25;;
2177;SDS011;1095;50.992;6.798;2022-12-10T08:00:14;133.88;;;44.58;;
2177;SDS011;1095;50.992;6.798;2022-12-10T08:02:41;118.72;;;43.80;;
2177;SDS011;1095;50.992;6.798;2022-12-10T08:05:08;123.45;;;42.83;;
2177;SDS011;1095;50.992;6.798;2022-12-10T08:07:35;110.70;;;41.35;;
2177;SDS011;1095;50.992;6.798;2022-12-10T08:10:02;121.50;;;42.05;;
2177;SDS011;1095;50.992;6.798;2022-12-10T08:12:31;122.63;;;44.17;;
2177;SDS011;1095;50.992;6.798;2022-12-10T08:14:57;120.68;;;42.97;;
2177;SDS011;1095;50.992;6.798;2022-12-10T08:17:24;128.80;;;41.83;;
2177;SDS011;1095;50.992;6.798;2022-12-10T08:19:51;108.68;;;40.05;;
2177;SDS011;1095;50.992;6.798;2022-12-10T08:22:19;116.53;;;39.95;;
2177;SDS011;1095;50.992;6.798;2022-12-10T08:24:46;115.63;;;43.20;;
2177;SDS011;1095;50.992;6.798;2022-12-10T08:27:12;111.68;;;43.78;;
2177;SDS011;1095;50.992;6.798;2022-12-10T08:29:40;122.32;;;42.65;;
2177;SDS011;1095;50.992;6.798;2022-12-10T08:32:07;118.47;;;42.80;;
2177;SDS011;1095;50.992;6.798;2022-12-10T08:34:33;121.95;;;42.33;;
2177;SDS011;1095;50.992;6.798;2022-12-10T08:37:00;121.57;;;40.72;;
2177;SDS011;1095;50.992;6.798;2022-12-10T08:39:27;124.53;;;42.67;;
2177;SDS011;1095;50.992;6.798;2022-12-10T08:41:54;125.55;;;40.70;;
2177;SDS011;1095;50.992;6.798;2022-12-10T08:44:20;130.88;;;52.05;;
2177;SDS011;1095;50.992;6.798;2022-12-10T08:46:49;123.15;;;43.83;;
2177;SDS011;1095;50.992;6.798;2022-12-10T08:49:19;112.35;;;39.97;;
2177;SDS011;1095;50.992;6.798;2022-12-10T08:51:48;119.20;;;39.13;;
2177;SDS011;1095;50.992;6.798;2022-12-10T08:54:14;123.40;;;41.25;;
2177;SDS011;1095;50.992;6.798;2022-12-10T08:56:41;113.13;;;39.83;;
2177;SDS011;1095;50.992;6.798;2022-12-10T08:59:08;118.40;;;40.63;;
2177;SDS011;1095;50.992;6.798;2022-12-10T09:01:36;126.00;;;42.30;;
2177;SDS011;1095;50.992;6.798;2022-12-10T09:04:04;114.78;;;40.63;;
2177;SDS011;1095;50.992;6.798;2022-12-10T09:06:31;126.68;;;43.65;;
2177;SDS011;1095;50.992;6.798;2022-12-10T09:08:57;120.38;;;40.47;;
2177;SDS011;1095;50.992;6.798;2022-12-10T09:11:25;109.90;;;39.15;;
2177;SDS011;1095;50.992;6.798;2022-12-10T09:13:53;102.97;;;38.40;;
2177;SDS011;1095;50.992;6.798;2022-12-10T09:16:21;104.95;;;39.60;;
2177;SDS011;1095;50.992;6.798;2022-12-10T09:18:53;105.85;;;38.78;;
2177;SDS011;1095;50.992;6.798;2022-12-10T09:21:21;100.90;;;37.70;;
2177;SDS011;1095;50.992;6.798;2022-12-10T09:23:49;103.15;;;37.60;;
2177;SDS011;1095;50.992;6.798;2022-12-10T09:26:16;96.60;;;38.55;;
2177;SDS011;1095;50.992;6.798;2022-12-10T09:28:44;112.57;;;40.70;;
2177;SDS011;1095;50.992;6.798;2022-12-10T09:31:12;106.38;;;41.05;;
2177;SDS011;1095;50.992;6.798;2022-12-10T09:33:40;117.80;;;40.40;;
2177;SDS011;1095;50.992;6.798;2022-12-10T09:36:11;126.40;;;42.35;;
2177;SDS011;1095;50.992;6.798;2022-12-10T09:38:40;107.40;;;39.72;;
2177;SDS011;1095;50.992;6.798;2022-12-10T09:41:13;107.80;;;41.45;;
2177;SDS011;1095;50.992;6.798;2022-12-10T09:44:04;108.75;;;40.72;;
2177;SDS011;1095;50.992;6.798;2022-12-10T09:46:40;101.80;;;37.22;;
2177;SDS011;1095;50.992;6.798;2022-12-10T09:49:17;103.18;;;38.88;;
2177;SDS011;1095;50.992;6.798;2022-12-10T09:51:54;107.22;;;40.20;;
2177;SDS011;1095;50.992;6.798;2022-12-10T09:54:25;99.45;;;37.42;;
2177;SDS011;1095;50.992;6.798;2022-12-10T09:56:55;98.57;;;38.07;;
2177;SDS011;1095;50.992;6.798;2022-12-10T09:59:25;97.45;;;37.08;;
2177;SDS011;1095;50.992;6.798;2022-12-10T10:02:03;106.70;;;39.53;;
2177;SDS011;1095;50.992;6.798;2022-12-10T10:04:42;114.47;;;46.20;;
2177;SDS011;1095;50.992;6.798;2022-12-10T10:07:09;103.22;;;40.58;;
2177;SDS011;1095;50.992;6.798;2022-12-10T10:09:44;109.22;;;41.63;;
2177;SDS011;1095;50.992;6.798;2022-12-10T10:12:12;107.65;;;39.08;;
2177;SDS011;1095;50.992;6.798;2022-12-10T10:14:41;98.78;;;37.90;;
2177;SDS011;1095;50.992;6.798;2022-12-10T10:17:10;101.07;;;38.90;;
2177;SDS011;1095;50.992;6.798;2022-12-10T10:19:42;98.93;;;38.70;;
2177;SDS011;1095;50.992;6.798;2022-12-10T10:22:09;96.53;;;38.58;;
2177;SDS011;1095;50.992;6.798;2022-12-10T10:24:41;96.43;;;36.65;;
2177;SDS011;1095;50.992;6.798;2022-12-10T10:27:12;93.15;;;38.42;;
2177;SDS011;1095;50.992;6.798;2022-12-10T10:29:42;91.70;;;37.78;;
2177;SDS011;1095;50.992;6.798;2022-12-10T10:32:10;90.72;;;39.15;;
2177;SDS011;1095;50.992;6.798;2022-12-10T10:34:40;92.45;;;37.40;;
2177;SDS011;1095;50.992;6.798;2022-12-10T10:37:11;86.35;;;36.30;;
2177;SDS011;1095;50.992;6.798;2022-12-10T10:39:45;82.80;;;33.88;;
2177;SDS011;1095;50.992;6.798;2022-12-10T10:42:17;94.30;;;44.92;;
2177;SDS011;1095;50.992;6.798;2022-12-10T10:44:52;85.10;;;33.97;;
2177;SDS011;1095;50.992;6.798;2022-12-10T10:47:27;89.00;;;34.10;;
2177;SDS011;1095;50.992;6.798;2022-12-10T10:49:54;91.18;;;39.03;;
2177;SDS011;1095;50.992;6.798;2022-12-10T10:52:21;82.63;;;33.67;;
2177;SDS011;1095;50.992;6.798;2022-12-10T10:54:53;80.18;;;34.13;;
2177;SDS011;1095;50.992;6.798;2022-12-10T10:57:23;81.70;;;33.30;;
2177;SDS011;1095;50.992;6.798;2022-12-10T10:59:52;80.90;;;34.08;;
2177;SDS011;1095;50.992;6.798;2022-12-10T11:02:22;83.35;;;35.05;;
2177;SDS011;1095;50.992;6.798;2022-12-10T11:04:53;82.90;;;33.25;;
2177;SDS011;1095;50.992;6.798;2022-12-10T11:07:24;91.45;;;35.60;;
2177;SDS011;1095;50.992;6.798;2022-12-10T11:09:58;80.53;;;34.42;;
2177;SDS011;1095;50.992;6.798;2022-12-10T11:12:35;85.57;;;34.95;;
2177;SDS011;1095;50.992;6.798;2022-12-10T11:15:21;83.07;;;34.28;;
2177;SDS011;1095;50.992;6.798;2022-12-10T11:17:56;78.33;;;33.13;;
2177;SDS011;1095;50.992;6.798;2022-12-10T11:20:23;80.13;;;34.55;;
2177;SDS011;1095;50.992;6.798;2022-12-10T11:22:53;74.25;;;32.05;;
2177;SDS011;1095;50.992;6.798;2022-12-10T11:25:26;79.35;;;33.17;;
2177;SDS011;1095;50.992;6.798;2022-12-10T11:28:15;78.63;;;32.28;;
2177;SDS011;1095;50.992;6.798;2022-12-10T11:30:57;79.32;;;32.22;;
2177;SDS011;1095;50.992;6.798;2022-12-10T11:33:38;83.65;;;34.03;;
2177;SDS011;1095;50.992;6.798;2022-12-10T11:36:20;80.05;;;32.70;;
2177;SDS011;1095;50.992;6.798;2022-12-10T11:38:55;78.55;;;33.97;;
2177;SDS011;1095;50.992;6.798;2022-12-10T11:41:35;81.97;;;35.03;;
2177;SDS011;1095;50.992;6.798;2022-12-10T11:44:12;78.03;;;32.30;;
2177;SDS011;1095;50.992;6.798;2022-12-10T11:46:51;77.10;;;32.90;;
2177;SDS011;1095;50.992;6.798;2022-12-10T11:49:29;76.43;;;33.15;;
2177;SDS011;1095;50.992;6.798;2022-12-10T11:52:06;84.93;;;35.58;;
2177;SDS011;1095;50.992;6.798;2022-12-10T11:54:57;84.68;;;34.08;;
2177;SDS011;1095;50.992;6.798;2022-12-10T11:57:34;81.38;;;34.25;;
2177;SDS011;1095;50.992;6.798;2022-12-10T12:00:19;76.65;;;31.30;;
2177;SDS011;1095;50.992;6.798;2022-12-10T12:05:57;83.93;;;35.00;;
2177;SDS011;1095;50.992;6.798;2022-12-10T12:08:34;74.72;;;31.67;;
2177;SDS011;1095;50.992;6.798;2022-12-10T12:11:14;77.20;;;32.20;;
2177;SDS011;1095;50.992;6.798;2022-12-10T12:13:51;93.10;;;43.78;;
2177;SDS011;1095;50.992;6.798;2022-12-10T12:16:25;82.10;;;36.08;;
2177;SDS011;1095;50.992;6.798;2022-12-10T12:18:57;79.68;;;32.60;;
2177;SDS011;1095;50.992;6.798;2022-12-10T12:21:26;80.18;;;33.08;;
2177;SDS011;1095;50.992;6.798;2022-12-10T12:23:54;77.85;;;33.30;;
2177;SDS011;1095;50.992;6.798;2022-12-10T12:26:26;75.03;;;33.67;;
2177;SDS011;1095;50.992;6.798;2022-12-10T12:28:56;77.68;;;31.45;;
2177;SDS011;1095;50.992;6.798;2022-12-10T12:31:35;69.90;;;31.67;;
2177;SDS011;1095;50.992;6.798;2022-12-10T12:34:06;74.25;;;33.03;;
2177;SDS011;1095;50.992;6.798;2022-12-10T12:36:42;69.80;;;31.73;;
2177;SDS011;1095;50.992;6.798;2022-12-10T12:39:14;69.40;;;30.77;;
2177;SDS011;1095;50.992;6.798;2022-12-10T12:41:48;73.10;;;31.42;;
2177;SDS011;1095;50.992;6.798;2022-12-10T12:44:22;69.72;;;31.27;;
2177;SDS011;1095;50.992;6.798;2022-12-10T12:46:56;67.28;;;31.63;;
2177;SDS011;1095;50.992;6.798;2022-12-10T12:49:29;62.88;;;28.42;;
2177;SDS011;1095;50.992;6.798;2022-12-10T12:52:05;75.03;;;33.80;;
2177;SDS011;1095;50.992;6.798;2022-12-10T12:54:45;71.18;;;31.38;;
2177;SDS011;1095;50.992;6.798;2022-12-10T12:57:13;68.15;;;30.90;;
2177;SDS011;1095;50.992;6.798;2022-12-10T12:59:51;69.40;;;31.08;;
2177;SDS011;1095;50.992;6.798;2022-12-10T13:02:32;68.65;;;29.33;;
2177;SDS011;1095;50.992;6.798;2022-12-10T13:05:12;63.30;;;28.90;;
2177;SDS011;1095;50.992;6.798;2022-12-10T13:07:41;70.78;;;33.97;;
2177;SDS011;1095;50.992;6.798;2022-12-10T13:10:18;66.30;;;29.50;;
2177;SDS011;1095;50.992;6.798;2022-12-10T13:15:32;70.38;;;29.30;;
2177;SDS011;1095;50.992;6.798;2022-12-10T13:18:03;63.72;;;28.95;;
2177;SDS011;1095;50.992;6.798;2022-12-10T13:20:46;68.93;;;30.67;;
2177;SDS011;1095;50.992;6.798;2022-12-10T13:23:38;63.97;;;26.67;;
2177;SDS011;1095;50.992;6.798;2022-12-10T13:26:25;84.25;;;36.65;;
2177;SDS011;1095;50.992;6.798;2022-12-10T13:29:11;64.97;;;28.77;;
2177;SDS011;1095;50.992;6.798;2022-12-10T13:31:56;67.18;;;28.90;;
2177;SDS011;1095;50.992;6.798;2022-12-10T13:34:46;63.22;;;29.13;;
2177;SDS011;1095;50.992;6.798;2022-12-10T13:37:35;55.83;;;27.40;;
2177;SDS011;1095;50.992;6.798;2022-12-10T13:40:23;67.82;;;30.13;;
2177;SDS011;1095;50.992;6.798;2022-12-10T13:42:56;64.10;;;28.85;;
2177;SDS011;1095;50.992;6.798;2022-12-10T13:45:42;72.43;;;29.92;;
2177;SDS011;1095;50.992;6.798;2022-12-10T13:48:16;63.42;;;29.95;;
2177;SDS011;1095;50.992;6.798;2022-12-10T13:50:50;61.00;;;29.85;;
2177;SDS011;1095;50.992;6.798;2022-12-10T13:53:28;62.42;;;28.95;;
2177;SDS011;1095;50.992;6.798;2022-12-10T13:56:06;54.13;;;27.17;;
2177;SDS011;1095;50.992;6.798;2022-12-10T13:58:41;66.70;;;28.92;;
2177;SDS011;1095;50.992;6.798;2022-12-10T14:01:15;66.47;;;31.02;;
2177;SDS011;1095;50.992;6.798;2022-12-10T14:03:59;64.20;;;27.98;;
2177;SDS011;1095;50.992;6.798;2022-12-10T14:06:34;62.28;;;29.33;;
2177;SDS011;1095;50.992;6.798;2022-12-10T14:09:05;62.47;;;29.42;;
2177;SDS011;1095;50.992;6.798;2022-12-10T14:11:40;57.55;;;28.48;;
2177;SDS011;1095;50.992;6.798;2022-12-10T14:14:20;66.43;;;27.60;;
2177;SDS011;1095;50.992;6.798;2022-12-10T14:16:51;68.38;;;29.05;;
2177;SDS011;1095;50.992;6.798;2022-12-10T14:19:20;65.78;;;29.33;;
2177;SDS011;1095;50.992;6.798;2022-12-10T14:21:50;69.03;;;28.80;;
2177;SDS011;1095;50.992;6.798;2022-12-10T14:24:28;70.65;;;29.40;;
2177;SDS011;1095;50.992;6.798;2022-12-10T14:26:57;64.35;;;28.50;;
2177;SDS011;1095;50.992;6.798;2022-12-10T14:29:26;63.55;;;28.80;;
2177;SDS011;1095;50.992;6.798;2022-12-10T14:31:52;76.15;;;41.50;;
2177;SDS011;1095;50.992;6.798;2022-12-10T14:34:21;63.78;;;33.58;;
2177;SDS011;1095;50.992;6.798;2022-12-10T14:36:51;58.33;;;28.13;;
2177;SDS011;1095;50.992;6.798;2022-12-10T14:39:21;59.30;;;28.90;;
2177;SDS011;1095;50.992;6.798;2022-12-10T14:41:53;62.47;;;29.30;;
2177;SDS011;1095;50.992;6.798;2022-12-10T14:44:23;57.47;;;27.83;;
2177;SDS011;1095;50.992;6.798;2022-12-10T14:46:50;69.68;;;30.38;;
2177;SDS011;1095;50.992;6.798;2022-12-10T14:49:19;66.55;;;29.55;;
2177;SDS011;1095;50.992;6.798;2022-12-10T14:51:47;59.42;;;27.63;;
2177;SDS011;1095;50.992;6.798;2022-12-10T14:54:25;58.78;;;27.38;;
2177;SDS011;1095;50.992;6.798;2022-12-10T14:56:54;63.08;;;28.10;;
2177;SDS011;1095;50.992;6.798;2022-12-10T14:59:23;63.67;;;30.92;;
2177;SDS011;1095;50.992;6.798;2022-12-10T15:01:55;66.63;;;31.75;;
2177;SDS011;1095;50.992;6.798;2022-12-10T15:04:26;82.60;;;40.22;;
2177;SDS011;1095;50.992;6.798;2022-12-10T15:07:05;61.53;;;30.13;;
2177;SDS011;1095;50.992;6.798;2022-12-10T15:09:33;59.40;;;30.73;;
2177;SDS011;1095;50.992;6.798;2022-12-10T15:12:01;66.10;;;29.40;;
2177;SDS011;1095;50.992;6.798;2022-12-10T15:14:28;62.22;;;29.58;;
2177;SDS011;1095;50.992;6.798;2022-12-10T15:16:57;83.32;;;34.10;;
2177;SDS011;1095;50.992;6.798;2022-12-10T15:19:24;69.25;;;31.05;;
2177;SDS011;1095;50.992;6.798;2022-12-10T15:21:52;56.65;;;28.50;;
2177;SDS011;1095;50.992;6.798;2022-12-10T15:24:25;65.90;;;30.35;;
2177;SDS011;1095;50.992;6.798;2022-12-10T15:26:54;64.13;;;30.50;;
2177;SDS011;1095;50.992;6.798;2022-12-10T15:29:31;62.33;;;29.83;;
2177;SDS011;1095;50.992;6.798;2022-12-10T15:32:10;64.97;;;29.20;;
2177;SDS011;1095;50.992;6.798;2022-12-10T15:34:41;55.58;;;26.85;;
2177;SDS011;1095;50.992;6.798;2022-12-10T15:37:26;57.70;;;27.48;;
2177;SDS011;1095;50.992;6.798;2022-12-10T15:40:22;67.25;;;29.83;;
2177;SDS011;1095;50.992;6.798;2022-12-10T15:43:47;65.18;;;27.65;;